createdAt,value
2019-06-07T00:01:24.676Z,100976.58
2019-06-07T00:03:55.895Z,100969.65
2019-06-07T00:06:27.718Z,100969.33
2019-06-07T00:08:57.729Z,100974.16
2019-06-07T00:11:27.939Z,100970.61
2019-06-07T00:13:58.070Z,100964.02
2019-06-07T00:16:28.374Z,100962.32
2019-06-07T00:18:58.479Z,100960.25
2019-06-07T00:22:12.785Z,100957.53
2019-06-07T00:24:00.814Z,100950.38
2019-06-07T00:26:31.102Z,100952.69
2019-06-07T00:29:01.325Z,100957.05
2019-06-07T00:31:31.718Z,100951.75
2019-06-07T00:34:03.460Z,100957.61
2019-06-07T00:36:33.522Z,100958.13
2019-06-07T00:39:06.183Z,100964.23
2019-06-07T00:41:36.543Z,100967.80
2019-06-07T00:44:06.721Z,100968.42
2019-06-07T00:46:37.865Z,100975.94
2019-06-07T00:49:07.965Z,100976.19
2019-06-07T00:51:50.105Z,100974.94
2019-06-07T00:54:12.298Z,100979.51
2019-06-07T00:56:43.890Z,100984.59
2019-06-07T00:59:16.174Z,100973.17
2019-06-07T01:01:46.208Z,100970.77
2019-06-07T01:04:19.443Z,100970.79
2019-06-07T01:06:48.424Z,100967.12
2019-06-07T01:09:22.322Z,100965.09
2019-06-07T01:11:50.532Z,100962.69
2019-06-07T01:14:24.129Z,100960.78
2019-06-07T01:16:59.386Z,100970.27
2019-06-07T01:19:27.362Z,100962.55
2019-06-07T01:21:56.466Z,100959.53
2019-06-07T01:24:28.100Z,100960.67
2019-06-07T01:26:58.595Z,100952.69
2019-06-07T01:29:30.865Z,100955.84
2019-06-07T01:32:01.263Z,100964.95
2019-06-07T01:34:33.792Z,100956.34
2019-06-07T01:37:03.920Z,100956.59
2019-06-07T01:39:34.244Z,100957.00
2019-06-07T01:42:04.562Z,100955.33
2019-06-07T01:44:35.235Z,100955.70
2019-06-07T01:47:05.340Z,100958.37
2019-06-07T01:49:36.492Z,100956.98
2019-06-07T01:52:07.221Z,100946.08
2019-06-07T01:54:58.733Z,100947.48
2019-06-07T01:57:30.499Z,100948.63
2019-06-07T01:59:43.923Z,100946.22
2019-06-07T02:02:14.441Z,100941.77
2019-06-07T02:04:44.656Z,100946.06
2019-06-07T02:07:14.870Z,100947.48
2019-06-07T02:09:46.289Z,100948.63
2019-06-07T02:12:25.603Z,100950.38
2019-06-07T02:14:48.389Z,100948.86
2019-06-07T02:17:20.249Z,100942.53
2019-06-07T02:19:50.329Z,100935.06
2019-06-07T02:22:21.832Z,100936.34
2019-06-07T02:25:34.407Z,100936.97
2019-06-07T02:27:27.438Z,100934.12
2019-06-07T02:29:58.301Z,100936.16
2019-06-07T02:32:31.681Z,100934.00
2019-06-07T02:35:01.123Z,100927.55
2019-06-07T02:37:36.506Z,100927.05
2019-06-07T02:40:03.815Z,100925.26
2019-06-07T02:42:38.942Z,100923.04
2019-06-07T02:45:06.288Z,100907.32
2019-06-07T02:47:38.283Z,100905.50
2019-06-07T02:50:09.278Z,100916.28
2019-06-07T02:52:40.822Z,100913.88
2019-06-07T02:55:11.717Z,100920.94
2019-06-07T02:57:43.083Z,100915.63
2019-06-07T03:00:41.297Z,100909.55
2019-06-07T03:02:46.802Z,100911.34
2019-06-07T03:05:16.811Z,100909.80
2019-06-07T03:07:48.064Z,100917.14
2019-06-07T03:10:19.115Z,100907.27
2019-06-07T03:12:51.081Z,100913.20
2019-06-07T03:15:38.725Z,100904.34
2019-06-07T03:18:09.639Z,100917.61
2019-06-07T03:20:39.911Z,100918.02
2019-06-07T03:23:09.787Z,100925.73
2019-06-07T03:25:41.479Z,100919.65
2019-06-07T03:28:11.438Z,100923.45
2019-06-07T03:30:57.999Z,100924.22
2019-06-07T03:33:13.410Z,100931.04
2019-06-07T03:35:43.586Z,100930.67
2019-06-07T03:38:13.592Z,100932.19
2019-06-07T03:40:43.532Z,100936.75
2019-06-07T03:43:13.395Z,100932.95
2019-06-07T03:45:43.520Z,100927.36
2019-06-07T03:48:14.346Z,100936.10
2019-06-07T03:50:44.679Z,100936.50
2019-06-07T03:53:14.731Z,100939.41
2019-06-07T03:55:44.678Z,100937.40
2019-06-07T03:58:31.627Z,100942.95
2019-06-07T04:00:46.927Z,100938.66
2019-06-07T04:03:33.103Z,100934.62
2019-06-07T04:05:50.026Z,100940.45
2019-06-07T04:08:20.265Z,100945.30
2019-06-07T04:10:59.799Z,100951.01
2019-06-07T04:13:21.819Z,100949.50
2019-06-07T04:15:52.369Z,100954.06
2019-06-07T04:18:22.794Z,100951.66
2019-06-07T04:20:52.956Z,100950.62
2019-06-07T04:23:29.914Z,100951.64
2019-06-07T04:25:54.653Z,100957.60
2019-06-07T04:29:23.802Z,100962.29
2019-06-07T04:30:56.819Z,100957.50
2019-06-07T04:33:28.473Z,100955.97
2019-06-07T04:35:59.629Z,100957.52
2019-06-07T04:38:36.222Z,100962.05
2019-06-07T04:41:03.705Z,100964.73
2019-06-07T04:43:38.059Z,100963.83
2019-06-07T04:46:07.582Z,100957.98
2019-06-07T04:48:43.249Z,100957.23
2019-06-07T04:51:14.060Z,100947.86
2019-06-07T04:53:43.889Z,100944.05
2019-06-07T04:56:14.221Z,100946.80
2019-06-07T04:58:44.238Z,100945.09
2019-06-07T05:01:26.752Z,100941.38
2019-06-07T05:03:45.944Z,100938.18
2019-06-07T05:06:16.174Z,100935.67
2019-06-07T05:08:47.039Z,100936.48
2019-06-07T05:11:17.336Z,100942.05
2019-06-07T05:13:47.434Z,100939.10
2019-06-07T05:16:18.467Z,100943.19
2019-06-07T05:18:48.926Z,100942.80
2019-06-07T05:21:18.722Z,100948.95
2019-06-07T05:24:06.763Z,100947.95
2019-06-07T05:26:20.153Z,100947.03
2019-06-07T05:28:50.061Z,100938.87
2019-06-07T05:31:20.341Z,100940.08
2019-06-07T05:33:50.838Z,100939.72
2019-06-07T05:36:20.716Z,100935.36
2019-06-07T05:38:50.831Z,100937.64
2019-06-07T05:41:20.911Z,100938.45
2019-06-07T05:44:11.199Z,100934.30
2019-06-07T05:46:22.848Z,100946.38
2019-06-07T05:48:52.891Z,100938.22
2019-06-07T05:51:22.932Z,100935.11
2019-06-07T05:53:53.236Z,100940.51
2019-06-07T05:56:23.157Z,100925.27
2019-06-07T05:58:53.143Z,100929.59
2019-06-07T06:01:42.731Z,100940.95
2019-06-07T06:03:55.305Z,100941.97
2019-06-07T06:06:25.207Z,100933.80
2019-06-07T06:09:12.956Z,100927.78
2019-06-07T06:11:43.434Z,100927.50
2019-06-07T06:14:07.588Z,100930.27
2019-06-07T06:16:30.076Z,100935.25
2019-06-07T06:19:00.039Z,100929.38
2019-06-07T06:21:29.902Z,100942.86
2019-06-07T06:23:59.972Z,100932.89
2019-06-07T06:26:29.937Z,100925.91
2019-06-07T06:29:00.010Z,100920.86
2019-06-07T06:31:29.923Z,100922.54
2019-06-07T06:33:59.818Z,100917.02
2019-06-07T06:36:29.676Z,100913.47
2019-06-07T06:39:00.833Z,100907.18
2019-06-07T06:41:48.423Z,100880.13
2019-06-07T06:44:04.467Z,100908.27
2019-06-07T06:46:38.791Z,100913.44
2019-06-07T06:49:07.118Z,100908.86
2019-06-07T06:51:39.145Z,100907.06
2019-06-07T06:54:08.939Z,100907.53
2019-06-07T06:56:39.800Z,100907.17
2019-06-07T06:59:37.552Z,100913.23
2019-06-07T07:01:42.506Z,100917.03
2019-06-07T07:04:13.629Z,100926.19
2019-06-07T07:06:45.553Z,100928.82
2019-06-07T07:09:15.611Z,100926.78
2019-06-07T07:12:01.056Z,100925.97
2019-06-07T07:14:17.545Z,100926.48
2019-06-07T07:16:53.621Z,100923.06
2019-06-07T07:19:19.535Z,100928.27
2019-06-07T07:21:52.409Z,100923.11
2019-06-07T07:24:22.487Z,100920.60
2019-06-07T07:26:53.955Z,100922.73
2019-06-07T07:29:24.268Z,100920.69
2019-06-07T07:31:56.429Z,100918.34
2019-06-07T07:34:36.219Z,100928.05
2019-06-07T07:36:59.952Z,100909.23
2019-06-07T07:39:29.950Z,100915.05
2019-06-07T07:42:19.955Z,100909.05
2019-06-07T07:44:31.979Z,100908.07
2019-06-07T07:47:02.117Z,100900.11
2019-06-07T07:49:31.945Z,100912.50
2019-06-07T07:52:01.990Z,100907.09
2019-06-07T07:54:31.994Z,100899.73
2019-06-07T07:57:01.853Z,100887.08
2019-06-07T07:59:41.889Z,100887.84
2019-06-07T08:02:03.619Z,100886.79
2019-06-07T08:05:12.757Z,100882.27
2019-06-07T08:07:05.238Z,100879.72
2019-06-07T08:09:35.334Z,100882.19
2019-06-07T08:12:05.720Z,100838.08
2019-06-07T08:14:36.310Z,100858.35
2019-06-07T08:17:06.258Z,100863.45
2019-06-07T08:19:36.322Z,100858.34
2019-06-07T08:22:06.652Z,100852.34
2019-06-07T08:24:36.767Z,100859.37
2019-06-07T08:27:25.449Z,100859.88
2019-06-07T08:29:44.932Z,100858.61
2019-06-07T08:32:10.464Z,100847.36
2019-06-07T08:34:40.562Z,100861.03
2019-06-07T08:37:10.719Z,100859.98
2019-06-07T08:39:40.946Z,100847.67
2019-06-07T08:42:21.113Z,100846.11
2019-06-07T08:44:43.778Z,100859.48
2019-06-07T08:47:20.450Z,100845.11
2019-06-07T08:49:45.377Z,100836.02
2019-06-07T08:52:15.354Z,100830.22
2019-06-07T08:54:45.209Z,100821.94
2019-06-07T08:57:21.286Z,100823.37
2019-06-07T08:59:46.786Z,100818.59
2019-06-07T09:02:23.800Z,100816.18
2019-06-07T09:04:49.383Z,100817.77
2019-06-07T09:07:21.914Z,100819.71
2019-06-07T09:09:58.468Z,100816.56
2019-06-07T09:12:22.839Z,100819.95
2019-06-07T09:15:06.891Z,100807.25
2019-06-07T09:17:24.674Z,100813.16
2019-06-07T09:19:56.252Z,100806.84
2019-06-07T09:22:26.451Z,100807.78
2019-06-07T09:25:05.929Z,100810.03
2019-06-07T09:27:28.331Z,100800.56
2019-06-07T09:30:04.738Z,100794.47
2019-06-07T09:32:30.101Z,100802.21
2019-06-07T09:35:07.391Z,100803.24
2019-06-07T09:38:04.467Z,100790.75
2019-06-07T09:40:19.629Z,100784.23
2019-06-07T09:42:36.645Z,100781.39
2019-06-07T09:45:11.687Z,100781.34
2019-06-07T09:47:38.995Z,100779.01
2019-06-07T09:50:12.171Z,100777.57
2019-06-07T09:52:57.918Z,100777.42
2019-06-07T09:55:23.492Z,100774.19
2019-06-07T09:57:44.345Z,100773.99
2019-06-07T10:00:38.712Z,100762.61
2019-06-07T10:02:46.921Z,100769.33
2019-06-07T10:05:17.215Z,100763.10
2019-06-07T10:08:02.524Z,100762.68
2019-06-07T10:12:51.197Z,100757.19
2019-06-07T10:15:21.198Z,100757.77
2019-06-07T10:17:51.826Z,100747.58
2019-06-07T10:20:22.368Z,100738.87
2019-06-07T10:22:52.500Z,100737.91
2019-06-07T10:25:22.439Z,100729.39
2019-06-07T10:27:52.470Z,100726.84
2019-06-07T10:30:23.464Z,100730.12
2019-06-07T10:32:53.470Z,100726.56
2019-06-07T10:35:23.998Z,100719.36
2019-06-07T10:37:53.816Z,100722.91
2019-06-07T10:40:24.111Z,100714.73
2019-06-07T10:42:54.406Z,100707.31
2019-06-07T10:45:25.035Z,100616.36
2019-06-07T10:47:55.234Z,100711.09
2019-06-07T10:50:25.376Z,100705.73
2019-06-07T10:52:55.650Z,100700.87
2019-06-07T10:55:26.221Z,100701.41
2019-06-07T10:57:56.335Z,100697.70
2019-06-07T11:00:27.208Z,100689.59
2019-06-07T11:02:57.335Z,100686.58
2019-06-07T11:05:27.683Z,100697.45
2019-06-07T11:08:00.608Z,100698.77
2019-06-07T11:10:29.815Z,100678.91
2019-06-07T11:12:59.828Z,100627.23
2019-06-07T11:15:29.940Z,100674.45
2019-06-07T11:17:59.817Z,100671.91
2019-06-07T11:20:30.042Z,100666.29
2019-06-07T11:23:00.373Z,100665.13
2019-06-07T11:25:30.301Z,100665.14
2019-06-07T11:28:01.526Z,100666.25
2019-06-07T11:30:32.032Z,100645.47
2019-06-07T11:33:02.437Z,100639.83
2019-06-07T11:35:32.344Z,100646.18
2019-06-07T11:38:03.544Z,100643.83
2019-06-07T11:40:35.868Z,100646.53
2019-06-07T11:43:06.564Z,100636.92
2019-06-07T11:45:36.620Z,100636.76
2019-06-07T11:48:07.228Z,100637.38
2019-06-07T11:50:37.821Z,100634.90
2019-06-07T11:53:08.597Z,100636.45
2019-06-07T11:55:38.870Z,100630.42
2019-06-07T11:58:11.631Z,100621.08
2019-06-07T12:00:40.758Z,100625.45
2019-06-07T12:03:11.587Z,100620.72
2019-06-07T12:05:42.952Z,100608.05
2019-06-07T12:08:14.029Z,100602.70
2019-06-07T12:10:44.344Z,100595.95
2019-06-07T12:13:15.555Z,100582.73
2019-06-07T12:15:48.998Z,100580.30
2019-06-07T12:18:19.700Z,100570.41
2019-06-07T12:20:49.918Z,100578.05
2019-06-07T12:23:20.166Z,100572.69
2019-06-07T12:25:50.629Z,100561.88
2019-06-07T12:28:21.018Z,100567.22
2019-06-07T12:30:50.960Z,100566.00
2019-06-07T12:33:21.719Z,100567.61
2019-06-07T12:35:52.085Z,100561.59
2019-06-07T12:38:23.139Z,100559.37
2019-06-07T12:40:57.556Z,100556.06
2019-06-07T12:43:26.796Z,100556.42
2019-06-07T12:45:57.044Z,100542.30
2019-06-07T12:48:26.944Z,100548.72
2019-06-07T12:50:57.028Z,100542.62
2019-06-07T12:53:28.288Z,100537.67
2019-06-07T12:56:00.526Z,100549.04
2019-06-07T12:58:35.336Z,100535.70
2019-06-07T13:01:02.394Z,100527.03
2019-06-07T13:03:32.541Z,100536.96
2019-06-07T13:06:02.433Z,100528.33
2019-06-07T13:08:32.294Z,100527.39
2019-06-07T13:11:14.694Z,100520.30
2019-06-07T13:13:34.488Z,100523.40
2019-06-07T13:16:04.865Z,100516.84
2019-06-07T13:18:35.636Z,100518.64
2019-06-07T13:21:05.582Z,100517.44
2019-06-07T13:23:36.626Z,100517.46
2019-06-07T13:26:06.788Z,100516.78
2019-06-07T13:28:37.069Z,100512.26
2019-06-07T13:31:06.930Z,100504.23
2019-06-07T13:33:38.759Z,100504.13
2019-06-07T13:36:09.011Z,100502.84
2019-06-07T13:38:39.043Z,100498.60
2019-06-07T13:41:09.241Z,100503.72
2019-06-07T13:43:39.380Z,100492.03
2019-06-07T13:46:12.811Z,100490.16
2019-06-07T13:48:43.051Z,100486.06
2019-06-07T13:51:13.014Z,100486.05
2019-06-07T13:53:43.384Z,100473.24
2019-06-07T13:56:13.199Z,100474.23
2019-06-07T13:58:43.087Z,100476.55
2019-06-07T14:01:12.866Z,100461.43
2019-06-07T14:03:42.846Z,100465.42
2019-06-07T14:06:12.816Z,100458.41
2019-06-07T14:08:43.106Z,100469.64
2019-06-07T14:11:13.385Z,100460.23
2019-06-07T14:13:43.964Z,100452.57
2019-06-07T14:16:14.795Z,100451.16
2019-06-07T14:18:44.792Z,100442.05
2019-06-07T14:21:14.819Z,100438.55
2019-06-07T14:23:49.141Z,100433.55
2019-06-07T14:26:16.338Z,100432.90
2019-06-07T14:28:47.021Z,100411.39
2019-06-07T14:31:16.937Z,100410.45
2019-06-07T14:33:47.101Z,100404.31
2019-06-07T14:36:17.257Z,100396.47
2019-06-07T14:38:47.239Z,100390.11
2019-06-07T14:41:18.203Z,100401.34
2019-06-07T14:43:48.575Z,100404.25
2019-06-07T14:46:18.657Z,100388.55
2019-06-07T14:48:48.683Z,100392.11
2019-06-07T14:51:18.719Z,100381.78
2019-06-07T14:53:49.023Z,100374.56
2019-06-07T14:56:19.051Z,100363.94
2019-06-07T14:58:48.901Z,100368.12
2019-06-07T15:01:18.687Z,100370.83
2019-06-07T15:03:48.707Z,100369.56
2019-06-07T15:06:19.090Z,100362.91
2019-06-07T15:08:51.410Z,100358.73
2019-06-07T15:11:20.924Z,100355.90
2019-06-07T15:13:51.898Z,100354.20
2019-06-07T15:16:22.081Z,100342.45
2019-06-07T15:18:51.967Z,100345.20
2019-06-07T15:21:21.783Z,100347.47
2019-06-07T15:23:52.797Z,100340.60
2019-06-07T15:26:23.255Z,100328.98
2019-06-07T15:28:53.135Z,100327.07
2019-06-07T15:31:23.215Z,100323.03
2019-06-07T15:33:53.075Z,100306.89
2019-06-07T15:36:22.998Z,100313.55
2019-06-07T15:38:52.870Z,100312.64
2019-06-07T15:41:22.600Z,100296.32
2019-06-07T15:43:52.716Z,100290.34
2019-06-07T15:46:22.510Z,100281.16
2019-06-07T15:48:52.568Z,100285.38
2019-06-07T15:51:22.720Z,100275.38
2019-06-07T15:53:52.611Z,100272.13
2019-06-07T15:56:24.960Z,100268.78
2019-06-07T15:58:55.292Z,100262.96
2019-06-07T16:01:25.114Z,100256.99
2019-06-07T16:03:55.295Z,100246.98
2019-06-07T16:06:25.489Z,100231.26
2019-06-07T16:08:55.356Z,100235.96
2019-06-07T16:11:25.569Z,100235.05
2019-06-07T16:13:55.599Z,100231.41
2019-06-07T16:16:25.699Z,100225.87
2019-06-07T16:18:55.929Z,100245.38
2019-06-07T16:21:26.349Z,100252.80
2019-06-07T16:23:56.348Z,100247.17
2019-06-07T16:26:26.292Z,100255.33
2019-06-07T16:28:57.312Z,100252.67
2019-06-07T16:31:28.387Z,100257.11
2019-06-07T16:33:58.381Z,100260.81
2019-06-07T16:36:28.319Z,100258.77
2019-06-07T16:38:58.281Z,100259.00
2019-06-07T16:41:28.093Z,100259.88
2019-06-07T16:43:57.984Z,100255.33
2019-06-07T16:46:28.097Z,100251.56
2019-06-07T16:48:58.247Z,100253.78
2019-06-07T16:51:28.245Z,100259.81
2019-06-07T16:53:58.419Z,100260.80
2019-06-07T16:56:28.387Z,100270.59
2019-06-07T16:59:00.392Z,100265.92
2019-06-07T17:01:30.464Z,100266.16
2019-06-07T17:04:00.357Z,100264.77
2019-06-07T17:06:30.776Z,100258.92
2019-06-07T17:09:00.563Z,100253.87
2019-06-07T17:11:32.444Z,100254.23
2019-06-07T17:14:02.847Z,100253.61
2019-06-07T17:16:32.867Z,100249.58
2019-06-07T17:19:02.775Z,100255.55
2019-06-07T17:21:32.896Z,100249.74
2019-06-07T17:24:03.076Z,100242.11
2019-06-07T17:26:32.824Z,100241.76
2019-06-07T17:29:02.932Z,100246.85
2019-06-07T17:31:33.082Z,100245.09
2019-06-07T17:34:03.358Z,100247.00
2019-06-07T17:36:33.420Z,100235.48
2019-06-07T17:39:04.387Z,100241.45
2019-06-07T17:41:50.636Z,100248.19
2019-06-07T17:44:06.589Z,100249.12
2019-06-07T17:46:36.589Z,100254.91
2019-06-07T17:49:06.740Z,100254.28
2019-06-07T17:51:37.209Z,100250.28
2019-06-07T17:54:07.613Z,100241.16
2019-06-07T17:56:38.423Z,100249.52
2019-06-07T17:59:08.791Z,100250.23
2019-06-07T18:01:41.805Z,100240.79
2019-06-07T18:04:12.328Z,100241.59
2019-06-07T18:06:43.600Z,100236.70
2019-06-07T18:09:14.204Z,100238.29
2019-06-07T18:11:45.833Z,100231.77
2019-06-07T18:14:16.220Z,100232.52
2019-06-07T18:16:46.544Z,100240.92
2019-06-07T18:19:16.634Z,100246.80
2019-06-07T18:21:47.132Z,100241.56
2019-06-07T18:24:18.120Z,100245.28
2019-06-07T18:26:48.453Z,100219.45
2019-06-07T18:29:18.480Z,100207.31
2019-06-07T18:31:48.730Z,100216.54
2019-06-07T18:34:18.451Z,100219.37
2019-06-07T18:36:48.974Z,100218.33
2019-06-07T18:39:19.383Z,100214.28
2019-06-07T18:41:49.628Z,100203.37
2019-06-07T18:44:21.800Z,100206.58
2019-06-07T18:46:52.268Z,100203.91
2019-06-07T18:49:22.191Z,100223.02
2019-06-07T18:52:09.888Z,100228.94
2019-06-07T18:54:40.086Z,100230.03
2019-06-07T18:57:12.376Z,100231.94
2019-06-07T18:59:42.047Z,100227.84
2019-06-07T19:02:11.963Z,100245.23
2019-06-07T19:04:41.827Z,100244.14
2019-06-07T19:07:12.930Z,100241.47
2019-06-07T19:09:43.743Z,100246.94
2019-06-07T19:12:13.470Z,100259.70
2019-06-07T19:14:43.464Z,100264.75
2019-06-07T19:17:13.624Z,100263.55
2019-06-07T19:19:43.507Z,100259.77
2019-06-07T19:22:13.372Z,100253.47
2019-06-07T19:24:43.223Z,100257.80
2019-06-07T19:27:13.061Z,100258.25
2019-06-07T19:29:42.858Z,100266.83
2019-06-07T19:32:12.806Z,100271.96
2019-06-07T19:34:42.915Z,100278.77
2019-06-07T19:37:12.700Z,100288.17
2019-06-07T19:39:42.663Z,100304.84
2019-06-07T19:42:13.092Z,100303.97
2019-06-07T19:44:54.585Z,100308.20
2019-06-07T19:47:15.902Z,100306.53
2019-06-07T19:49:45.705Z,100310.77
2019-06-07T19:52:15.635Z,100317.12
2019-06-07T19:54:45.618Z,100316.98
2019-06-07T19:57:15.796Z,100318.20
2019-06-07T19:59:45.650Z,100324.55
2019-06-07T20:02:15.586Z,100340.67
2019-06-07T20:04:45.928Z,100351.70
2019-06-07T20:07:15.855Z,100365.98
2019-06-07T20:09:46.084Z,100412.12
2019-06-07T20:12:15.952Z,100427.02
2019-06-07T20:14:45.814Z,100481.23
2019-06-07T20:17:15.908Z,100475.70
2019-06-07T20:19:45.794Z,100505.84
2019-06-07T20:22:16.029Z,100524.03
2019-06-07T20:24:46.012Z,100526.44
2019-06-07T20:27:18.339Z,100532.27
2019-06-07T20:29:48.824Z,100555.64
2019-06-07T20:32:19.035Z,100586.19
2019-06-07T20:34:48.938Z,100605.75
2019-06-07T20:37:18.782Z,100630.55
2019-06-07T20:39:48.692Z,100638.38
2019-06-07T20:42:18.566Z,100653.91
2019-06-07T20:44:48.868Z,100664.49
2019-06-07T20:47:18.772Z,100649.94
2019-06-07T20:49:48.661Z,100618.38
2019-06-07T20:52:18.808Z,100553.70
2019-06-07T20:54:48.821Z,100506.09
2019-06-07T20:57:18.763Z,100539.22
2019-06-07T20:59:48.584Z,100574.70
2019-06-07T21:02:18.425Z,100551.16
2019-06-07T21:04:49.431Z,100561.05
2019-06-07T21:07:19.298Z,100553.13
2019-06-07T21:09:49.317Z,100574.11
2019-06-07T21:12:19.527Z,100570.30
2019-06-07T21:14:49.550Z,100579.02
2019-06-07T21:17:19.696Z,100615.77
2019-06-07T21:19:49.748Z,100618.27
2019-06-07T21:22:20.128Z,100636.35
2019-06-07T21:24:50.327Z,100663.19
2019-06-07T21:27:20.241Z,100667.00
2019-06-07T21:29:50.080Z,100672.76
2019-06-07T21:32:20.365Z,100648.34
2019-06-07T21:34:50.263Z,100654.06
2019-06-07T21:37:20.232Z,100662.12
2019-06-07T21:39:50.104Z,100655.56
2019-06-07T21:42:20.147Z,100659.20
2019-06-07T21:44:49.951Z,100664.05
2019-06-07T21:47:19.946Z,100661.48
2019-06-07T21:49:49.722Z,100662.31
2019-06-07T21:52:19.673Z,100648.62
2019-06-07T21:54:49.728Z,100648.89
2019-06-07T21:57:19.507Z,100647.95
2019-06-07T21:59:49.289Z,100623.13
2019-06-07T22:02:19.272Z,100626.94
2019-06-07T22:04:49.319Z,100629.20
2019-06-07T22:07:19.272Z,100615.64
2019-06-07T22:09:49.099Z,100616.49
2019-06-07T22:12:19.138Z,100607.55
2019-06-07T22:14:49.321Z,100608.92
2019-06-07T22:17:19.427Z,100592.77
2019-06-07T22:19:49.496Z,100608.30
2019-06-07T22:22:20.133Z,100608.16
2019-06-07T22:24:50.022Z,100585.60
2019-06-07T22:27:20.014Z,100570.13
2019-06-07T22:33:26.317Z,100604.42
2019-06-07T22:35:56.097Z,100596.68
2019-06-07T22:38:25.864Z,100597.27
2019-06-07T22:40:55.735Z,100589.20
2019-06-07T22:43:25.625Z,100586.80
2019-06-07T22:45:56.354Z,100592.09
2019-06-07T22:48:26.229Z,100625.52
2019-06-07T22:50:57.808Z,100646.34
2019-06-07T22:53:28.115Z,100661.02
2019-06-07T22:56:07.717Z,100672.72
2019-06-07T22:58:37.671Z,100687.83
2019-06-07T23:01:08.222Z,100714.53
2019-06-07T23:03:39.310Z,100730.39
2019-06-07T23:06:09.186Z,100698.25
2019-06-07T23:08:39.468Z,100728.72
2019-06-07T23:11:09.341Z,100726.05
2019-06-07T23:13:39.470Z,100708.36
2019-06-07T23:16:09.451Z,100694.16
2019-06-07T23:18:39.284Z,100698.57
2019-06-07T23:21:09.676Z,100690.47
2019-06-07T23:23:39.857Z,100679.21
2019-06-07T23:26:10.034Z,100684.84
2019-06-07T23:28:40.094Z,100681.40
2019-06-07T23:31:10.420Z,100685.66
2019-06-07T23:33:40.458Z,100675.72
2019-06-07T23:36:10.987Z,100673.25
2019-06-07T23:38:41.188Z,100671.46
2019-06-07T23:41:13.176Z,100662.67
2019-06-07T23:43:43.611Z,100685.40
2019-06-07T23:46:13.729Z,100696.03
2019-06-07T23:48:43.813Z,100691.77
2019-06-07T23:51:13.790Z,100704.52
2019-06-07T23:53:43.854Z,100714.24
2019-06-07T23:56:15.884Z,100724.75
2019-06-07T23:58:45.792Z,100717.13
